sensor_id;sensor_type;location;lat;lon;timestamp;P1;durP1;ratioP1;P2;durP2;ratioP2
18576;SDS011;9418;52.694;13.294;2022-07-30T00:01:48;3.30;;;2.17;;
18576;SDS011;9418;52.694;13.294;2022-07-30T00:04:14;2.50;;;2.30;;
18576;SDS011;9418;52.694;13.294;2022-07-30T00:06:41;11.13;;;1.80;;
18576;SDS011;9418;52.694;13.294;2022-07-30T00:09:09;3.80;;;2.20;;
18576;SDS011;9418;52.694;13.294;2022-07-30T00:11:35;14.20;;;1.90;;
18576;SDS011;9418;52.694;13.294;2022-07-30T00:14:02;3.93;;;2.73;;
18576;SDS011;9418;52.694;13.294;2022-07-30T00:16:29;15.93;;;2.27;;
18576;SDS011;9418;52.694;13.294;2022-07-30T00:18:56;1.83;;;1.60;;
18576;SDS011;9418;52.694;13.294;2022-07-30T00:21:22;5.57;;;1.83;;
18576;SDS011;9418;52.694;13.294;2022-07-30T00:23:49;4.30;;;2.30;;
18576;SDS011;9418;52.694;13.294;2022-07-30T00:26:17;4.10;;;1.70;;
18576;SDS011;9418;52.694;13.294;2022-07-30T00:28:43;3.27;;;1.80;;
18576;SDS011;9418;52.694;13.294;2022-07-30T00:31:10;4.33;;;2.23;;
18576;SDS011;9418;52.694;13.294;2022-07-30T00:33:36;2.63;;;2.43;;
18576;SDS011;9418;52.694;13.294;2022-07-30T00:36:03;4.33;;;1.97;;
18576;SDS011;9418;52.694;13.294;2022-07-30T00:38:30;3.20;;;2.13;;
18576;SDS011;9418;52.694;13.294;2022-07-30T00:40:56;3.07;;;1.83;;
18576;SDS011;9418;52.694;13.294;2022-07-30T00:43:24;3.67;;;1.87;;
18576;SDS011;9418;52.694;13.294;2022-07-30T00:45:51;9.33;;;2.13;;
18576;SDS011;9418;52.694;13.294;2022-07-30T00:48:17;3.67;;;2.20;;
18576;SDS011;9418;52.694;13.294;2022-07-30T00:50:44;3.87;;;2.40;;
18576;SDS011;9418;52.694;13.294;2022-07-30T00:53:11;5.60;;;1.93;;
18576;SDS011;9418;52.694;13.294;2022-07-30T00:55:37;2.40;;;1.90;;
18576;SDS011;9418;52.694;13.294;2022-07-30T00:58:04;4.23;;;2.00;;
18576;SDS011;9418;52.694;13.294;2022-07-30T01:00:32;2.70;;;1.97;;
18576;SDS011;9418;52.694;13.294;2022-07-30T01:02:59;2.40;;;2.20;;
18576;SDS011;9418;52.694;13.294;2022-07-30T01:05:25;3.87;;;2.07;;
18576;SDS011;9418;52.694;13.294;2022-07-30T01:07:52;5.80;;;2.23;;
18576;SDS011;9418;52.694;13.294;2022-07-30T01:10:19;4.70;;;2.20;;
18576;SDS011;9418;52.694;13.294;2022-07-30T01:12:46;9.83;;;2.50;;
18576;SDS011;9418;52.694;13.294;2022-07-30T01:15:13;3.83;;;2.23;;
18576;SDS011;9418;52.694;13.294;2022-07-30T01:17:42;11.30;;;2.10;;
18576;SDS011;9418;52.694;13.294;2022-07-30T01:20:12;7.30;;;2.53;;
18576;SDS011;9418;52.694;13.294;2022-07-30T01:22:43;15.57;;;2.47;;
18576;SDS011;9418;52.694;13.294;2022-07-30T01:25:16;5.63;;;2.60;;
18576;SDS011;9418;52.694;13.294;2022-07-30T01:27:51;2.10;;;2.00;;
18576;SDS011;9418;52.694;13.294;2022-07-30T01:30:34;2.00;;;1.90;;
18576;SDS011;9418;52.694;13.294;2022-07-30T01:33:04;7.60;;;2.60;;
18576;SDS011;9418;52.694;13.294;2022-07-30T01:35:32;3.07;;;2.37;;
18576;SDS011;9418;52.694;13.294;2022-07-30T01:38:00;6.50;;;2.70;;
18576;SDS011;9418;52.694;13.294;2022-07-30T01:40:28;4.13;;;2.47;;
18576;SDS011;9418;52.694;13.294;2022-07-30T01:42:58;4.10;;;2.13;;
18576;SDS011;9418;52.694;13.294;2022-07-30T01:45:27;2.73;;;2.07;;
18576;SDS011;9418;52.694;13.294;2022-07-30T01:47:56;7.60;;;2.20;;
18576;SDS011;9418;52.694;13.294;2022-07-30T01:50:24;2.17;;;2.00;;
18576;SDS011;9418;52.694;13.294;2022-07-30T01:52:53;8.13;;;2.27;;
18576;SDS011;9418;52.694;13.294;2022-07-30T01:55:22;3.30;;;2.63;;
18576;SDS011;9418;52.694;13.294;2022-07-30T01:57:51;2.47;;;1.90;;
18576;SDS011;9418;52.694;13.294;2022-07-30T02:00:22;2.43;;;2.20;;
18576;SDS011;9418;52.694;13.294;2022-07-30T02:02:51;5.03;;;2.13;;
18576;SDS011;9418;52.694;13.294;2022-07-30T02:05:18;10.23;;;1.93;;
18576;SDS011;9418;52.694;13.294;2022-07-30T02:07:46;3.30;;;2.07;;
18576;SDS011;9418;52.694;13.294;2022-07-30T02:10:18;3.13;;;2.73;;
18576;SDS011;9418;52.694;13.294;2022-07-30T02:12:52;2.30;;;1.80;;
18576;SDS011;9418;52.694;13.294;2022-07-30T02:15:24;5.33;;;2.07;;
18576;SDS011;9418;52.694;13.294;2022-07-30T02:17:54;2.20;;;1.80;;
18576;SDS011;9418;52.694;13.294;2022-07-30T02:20:25;3.73;;;2.03;;
18576;SDS011;9418;52.694;13.294;2022-07-30T02:22:54;3.07;;;1.90;;
18576;SDS011;9418;52.694;13.294;2022-07-30T02:25:24;1.70;;;1.60;;
18576;SDS011;9418;52.694;13.294;2022-07-30T02:27:53;3.03;;;1.80;;
18576;SDS011;9418;52.694;13.294;2022-07-30T02:30:24;5.13;;;1.70;;
18576;SDS011;9418;52.694;13.294;2022-07-30T02:33:01;5.80;;;2.60;;
18576;SDS011;9418;52.694;13.294;2022-07-30T02:35:30;2.07;;;1.90;;
18576;SDS011;9418;52.694;13.294;2022-07-30T02:37:59;7.77;;;1.67;;
18576;SDS011;9418;52.694;13.294;2022-07-30T02:40:27;2.13;;;1.70;;
18576;SDS011;9418;52.694;13.294;2022-07-30T02:42:54;3.70;;;2.10;;
18576;SDS011;9418;52.694;13.294;2022-07-30T02:45:23;6.93;;;2.27;;
18576;SDS011;9418;52.694;13.294;2022-07-30T02:47:52;1.83;;;1.73;;
18576;SDS011;9418;52.694;13.294;2022-07-30T02:50:22;3.20;;;2.20;;
18576;SDS011;9418;52.694;13.294;2022-07-30T02:52:50;5.07;;;1.90;;
18576;SDS011;9418;52.694;13.294;2022-07-30T02:55:18;3.90;;;2.27;;
18576;SDS011;9418;52.694;13.294;2022-07-30T02:57:46;2.30;;;2.10;;
18576;SDS011;9418;52.694;13.294;2022-07-30T03:00:15;1.93;;;1.70;;
18576;SDS011;9418;52.694;13.294;2022-07-30T03:02:43;3.13;;;1.70;;
18576;SDS011;9418;52.694;13.294;2022-07-30T03:05:12;2.00;;;1.90;;
18576;SDS011;9418;52.694;13.294;2022-07-30T03:07:40;14.90;;;2.07;;
18576;SDS011;9418;52.694;13.294;2022-07-30T03:10:08;2.60;;;1.70;;
18576;SDS011;9418;52.694;13.294;2022-07-30T03:12:37;2.23;;;2.00;;
18576;SDS011;9418;52.694;13.294;2022-07-30T03:15:06;3.63;;;2.60;;
18576;SDS011;9418;52.694;13.294;2022-07-30T03:17:36;3.53;;;2.00;;
18576;SDS011;9418;52.694;13.294;2022-07-30T03:20:09;2.60;;;2.03;;
18576;SDS011;9418;52.694;13.294;2022-07-30T03:22:39;5.43;;;2.40;;
18576;SDS011;9418;52.694;13.294;2022-07-30T03:25:08;3.43;;;1.80;;
18576;SDS011;9418;52.694;13.294;2022-07-30T03:27:36;6.10;;;2.13;;
18576;SDS011;9418;52.694;13.294;2022-07-30T03:30:05;3.93;;;3.30;;
18576;SDS011;9418;52.694;13.294;2022-07-30T03:32:32;4.00;;;2.30;;
18576;SDS011;9418;52.694;13.294;2022-07-30T03:34:59;8.00;;;2.87;;
18576;SDS011;9418;52.694;13.294;2022-07-30T03:37:28;2.03;;;1.93;;
18576;SDS011;9418;52.694;13.294;2022-07-30T03:39:56;2.03;;;1.93;;
18576;SDS011;9418;52.694;13.294;2022-07-30T03:42:24;4.50;;;1.60;;
18576;SDS011;9418;52.694;13.294;2022-07-30T03:44:52;3.53;;;2.07;;
18576;SDS011;9418;52.694;13.294;2022-07-30T03:47:19;9.30;;;2.47;;
18576;SDS011;9418;52.694;13.294;2022-07-30T03:49:47;1.80;;;1.70;;
18576;SDS011;9418;52.694;13.294;2022-07-30T03:52:14;2.20;;;2.10;;
18576;SDS011;9418;52.694;13.294;2022-07-30T03:54:42;7.30;;;2.83;;
18576;SDS011;9418;52.694;13.294;2022-07-30T03:57:10;4.90;;;1.80;;
18576;SDS011;9418;52.694;13.294;2022-07-30T03:59:37;7.30;;;2.07;;
18576;SDS011;9418;52.694;13.294;2022-07-30T04:02:04;2.90;;;1.40;;
18576;SDS011;9418;52.694;13.294;2022-07-30T04:04:30;1.63;;;1.53;;
18576;SDS011;9418;52.694;13.294;2022-07-30T04:06:57;2.27;;;2.07;;
18576;SDS011;9418;52.694;13.294;2022-07-30T04:09:24;4.73;;;2.00;;
18576;SDS011;9418;52.694;13.294;2022-07-30T04:11:52;1.97;;;1.87;;
18576;SDS011;9418;52.694;13.294;2022-07-30T04:14:18;4.30;;;1.63;;
18576;SDS011;9418;52.694;13.294;2022-07-30T04:16:46;4.13;;;1.40;;
18576;SDS011;9418;52.694;13.294;2022-07-30T04:19:19;3.37;;;2.00;;
18576;SDS011;9418;52.694;13.294;2022-07-30T04:21:48;1.80;;;1.60;;
18576;SDS011;9418;52.694;13.294;2022-07-30T04:24:18;1.67;;;1.57;;
18576;SDS011;9418;52.694;13.294;2022-07-30T04:26:45;4.10;;;1.90;;
18576;SDS011;9418;52.694;13.294;2022-07-30T04:29:14;4.40;;;1.70;;
18576;SDS011;9418;52.694;13.294;2022-07-30T04:31:42;6.83;;;1.53;;
18576;SDS011;9418;52.694;13.294;2022-07-30T04:34:11;2.80;;;1.80;;
18576;SDS011;9418;52.694;13.294;2022-07-30T04:36:40;2.20;;;2.00;;
18576;SDS011;9418;52.694;13.294;2022-07-30T04:39:08;3.23;;;1.73;;
18576;SDS011;9418;52.694;13.294;2022-07-30T04:41:35;4.73;;;1.93;;
18576;SDS011;9418;52.694;13.294;2022-07-30T04:44:02;2.40;;;1.53;;
18576;SDS011;9418;52.694;13.294;2022-07-30T04:46:30;7.20;;;2.10;;
18576;SDS011;9418;52.694;13.294;2022-07-30T04:48:57;5.17;;;1.83;;
18576;SDS011;9418;52.694;13.294;2022-07-30T04:51:24;7.80;;;2.33;;
18576;SDS011;9418;52.694;13.294;2022-07-30T04:53:58;1.93;;;1.60;;
18576;SDS011;9418;52.694;13.294;2022-07-30T04:56:26;5.87;;;1.83;;
18576;SDS011;9418;52.694;13.294;2022-07-30T04:58:55;2.07;;;1.97;;
18576;SDS011;9418;52.694;13.294;2022-07-30T05:01:22;2.20;;;2.00;;
18576;SDS011;9418;52.694;13.294;2022-07-30T05:03:54;6.93;;;2.00;;
18576;SDS011;9418;52.694;13.294;2022-07-30T05:06:23;2.00;;;1.73;;
18576;SDS011;9418;52.694;13.294;2022-07-30T05:08:51;2.67;;;2.03;;
18576;SDS011;9418;52.694;13.294;2022-07-30T05:11:17;2.83;;;2.00;;
18576;SDS011;9418;52.694;13.294;2022-07-30T05:13:45;6.60;;;1.97;;
18576;SDS011;9418;52.694;13.294;2022-07-30T05:16:13;3.23;;;2.00;;
18576;SDS011;9418;52.694;13.294;2022-07-30T05:18:40;2.53;;;2.33;;
18576;SDS011;9418;52.694;13.294;2022-07-30T05:21:09;1.87;;;1.77;;
18576;SDS011;9418;52.694;13.294;2022-07-30T05:23:35;2.33;;;1.77;;
18576;SDS011;9418;52.694;13.294;2022-07-30T05:26:02;4.33;;;2.17;;
18576;SDS011;9418;52.694;13.294;2022-07-30T05:28:29;6.27;;;1.90;;
18576;SDS011;9418;52.694;13.294;2022-07-30T05:30:55;4.27;;;1.93;;
18576;SDS011;9418;52.694;13.294;2022-07-30T05:33:22;2.30;;;1.87;;
18576;SDS011;9418;52.694;13.294;2022-07-30T05:35:49;2.80;;;1.77;;
18576;SDS011;9418;52.694;13.294;2022-07-30T05:38:17;3.73;;;1.70;;
18576;SDS011;9418;52.694;13.294;2022-07-30T05:40:44;1.93;;;1.80;;
18576;SDS011;9418;52.694;13.294;2022-07-30T05:43:11;1.93;;;1.80;;
18576;SDS011;9418;52.694;13.294;2022-07-30T05:45:38;1.97;;;1.50;;
18576;SDS011;9418;52.694;13.294;2022-07-30T05:48:04;1.97;;;1.83;;
18576;SDS011;9418;52.694;13.294;2022-07-30T05:50:32;6.63;;;2.80;;
18576;SDS011;9418;52.694;13.294;2022-07-30T05:52:58;3.50;;;2.33;;
18576;SDS011;9418;52.694;13.294;2022-07-30T05:55:26;1.83;;;1.73;;
18576;SDS011;9418;52.694;13.294;2022-07-30T05:57:53;4.50;;;1.77;;
18576;SDS011;9418;52.694;13.294;2022-07-30T06:00:19;3.03;;;1.60;;
18576;SDS011;9418;52.694;13.294;2022-07-30T06:02:46;3.07;;;1.60;;
18576;SDS011;9418;52.694;13.294;2022-07-30T06:05:13;1.50;;;1.40;;
18576;SDS011;9418;52.694;13.294;2022-07-30T06:07:39;3.73;;;2.00;;
18576;SDS011;9418;52.694;13.294;2022-07-30T06:10:06;2.00;;;1.23;;
18576;SDS011;9418;52.694;13.294;2022-07-30T06:12:34;3.33;;;1.90;;
18576;SDS011;9418;52.694;13.294;2022-07-30T06:15:01;2.53;;;1.50;;
18576;SDS011;9418;52.694;13.294;2022-07-30T06:17:27;1.83;;;1.43;;
18576;SDS011;9418;52.694;13.294;2022-07-30T06:19:54;3.83;;;1.73;;
18576;SDS011;9418;52.694;13.294;2022-07-30T06:22:21;2.70;;;1.50;;
18576;SDS011;9418;52.694;13.294;2022-07-30T06:24:47;1.83;;;1.73;;
18576;SDS011;9418;52.694;13.294;2022-07-30T06:27:14;2.30;;;1.70;;
18576;SDS011;9418;52.694;13.294;2022-07-30T06:29:42;2.70;;;1.60;;
18576;SDS011;9418;52.694;13.294;2022-07-30T06:32:08;1.90;;;1.40;;
18576;SDS011;9418;52.694;13.294;2022-07-30T06:34:35;3.50;;;2.27;;
18576;SDS011;9418;52.694;13.294;2022-07-30T06:37:01;2.77;;;1.57;;
18576;SDS011;9418;52.694;13.294;2022-07-30T06:39:28;2.60;;;1.50;;
18576;SDS011;9418;52.694;13.294;2022-07-30T06:41:55;2.20;;;1.50;;
18576;SDS011;9418;52.694;13.294;2022-07-30T06:44:21;2.13;;;1.60;;
18576;SDS011;9418;52.694;13.294;2022-07-30T06:46:49;6.10;;;1.60;;
18576;SDS011;9418;52.694;13.294;2022-07-30T06:49:16;2.03;;;1.70;;
18576;SDS011;9418;52.694;13.294;2022-07-30T06:51:43;5.10;;;1.50;;
18576;SDS011;9418;52.694;13.294;2022-07-30T06:54:09;2.40;;;1.70;;
18576;SDS011;9418;52.694;13.294;2022-07-30T06:56:36;7.40;;;1.80;;
18576;SDS011;9418;52.694;13.294;2022-07-30T06:59:03;3.13;;;1.60;;
18576;SDS011;9418;52.694;13.294;2022-07-30T07:01:29;3.43;;;1.50;;
18576;SDS011;9418;52.694;13.294;2022-07-30T07:03:57;3.03;;;1.40;;
18576;SDS011;9418;52.694;13.294;2022-07-30T07:06:24;1.50;;;1.40;;
18576;SDS011;9418;52.694;13.294;2022-07-30T07:08:50;1.63;;;1.30;;
18576;SDS011;9418;52.694;13.294;2022-07-30T07:11:17;8.10;;;1.87;;
18576;SDS011;9418;52.694;13.294;2022-07-30T07:13:44;4.67;;;1.37;;
18576;SDS011;9418;52.694;13.294;2022-07-30T07:16:10;1.87;;;1.37;;
18576;SDS011;9418;52.694;13.294;2022-07-30T07:18:37;1.70;;;1.50;;
18576;SDS011;9418;52.694;13.294;2022-07-30T07:21:05;2.20;;;1.60;;
18576;SDS011;9418;52.694;13.294;2022-07-30T07:23:32;1.30;;;1.20;;
18576;SDS011;9418;52.694;13.294;2022-07-30T07:25:58;5.20;;;1.53;;
18576;SDS011;9418;52.694;13.294;2022-07-30T07:28:25;2.50;;;1.60;;
18576;SDS011;9418;52.694;13.294;2022-07-30T07:30:52;4.77;;;1.60;;
18576;SDS011;9418;52.694;13.294;2022-07-30T07:33:18;3.93;;;1.40;;
18576;SDS011;9418;52.694;13.294;2022-07-30T07:35:45;5.03;;;1.70;;
18576;SDS011;9418;52.694;13.294;2022-07-30T07:38:13;12.30;;;1.70;;
18576;SDS011;9418;52.694;13.294;2022-07-30T07:40:40;3.60;;;1.80;;
18576;SDS011;9418;52.694;13.294;2022-07-30T07:43:07;2.40;;;1.57;;
18576;SDS011;9418;52.694;13.294;2022-07-30T07:45:33;3.57;;;1.50;;
18576;SDS011;9418;52.694;13.294;2022-07-30T07:48:00;4.87;;;1.60;;
18576;SDS011;9418;52.694;13.294;2022-07-30T07:50:27;3.90;;;1.77;;
18576;SDS011;9418;52.694;13.294;2022-07-30T07:52:53;2.53;;;1.80;;
18576;SDS011;9418;52.694;13.294;2022-07-30T07:55:21;10.67;;;1.63;;
18576;SDS011;9418;52.694;13.294;2022-07-30T07:57:48;8.97;;;1.90;;
18576;SDS011;9418;52.694;13.294;2022-07-30T08:00:15;7.80;;;1.60;;
18576;SDS011;9418;52.694;13.294;2022-07-30T08:02:43;1.83;;;1.30;;
18576;SDS011;9418;52.694;13.294;2022-07-30T08:05:10;4.30;;;1.57;;
18576;SDS011;9418;52.694;13.294;2022-07-30T08:07:37;1.50;;;1.40;;
18576;SDS011;9418;52.694;13.294;2022-07-30T08:10:05;5.30;;;1.87;;
18576;SDS011;9418;52.694;13.294;2022-07-30T08:12:34;4.07;;;1.23;;
18576;SDS011;9418;52.694;13.294;2022-07-30T08:15:01;2.40;;;1.93;;
18576;SDS011;9418;52.694;13.294;2022-07-30T08:17:28;4.20;;;1.70;;
18576;SDS011;9418;52.694;13.294;2022-07-30T08:19:56;5.33;;;1.77;;
18576;SDS011;9418;52.694;13.294;2022-07-30T08:22:24;3.27;;;1.93;;
18576;SDS011;9418;52.694;13.294;2022-07-30T08:24:51;3.10;;;1.63;;
18576;SDS011;9418;52.694;13.294;2022-07-30T08:27:18;11.03;;;2.13;;
18576;SDS011;9418;52.694;13.294;2022-07-30T08:29:46;3.53;;;1.67;;
18576;SDS011;9418;52.694;13.294;2022-07-30T08:32:12;1.90;;;1.60;;
18576;SDS011;9418;52.694;13.294;2022-07-30T08:34:39;5.23;;;1.47;;
18576;SDS011;9418;52.694;13.294;2022-07-30T08:37:05;4.73;;;1.60;;
18576;SDS011;9418;52.694;13.294;2022-07-30T08:39:32;1.70;;;1.60;;
18576;SDS011;9418;52.694;13.294;2022-07-30T08:41:58;2.70;;;1.73;;
18576;SDS011;9418;52.694;13.294;2022-07-30T08:44:27;1.40;;;1.30;;
18576;SDS011;9418;52.694;13.294;2022-07-30T08:46:56;4.50;;;1.80;;
18576;SDS011;9418;52.694;13.294;2022-07-30T08:49:24;7.10;;;1.63;;
18576;SDS011;9418;52.694;13.294;2022-07-30T08:51:51;5.70;;;1.50;;
18576;SDS011;9418;52.694;13.294;2022-07-30T08:54:18;8.40;;;1.73;;
18576;SDS011;9418;52.694;13.294;2022-07-30T08:56:45;2.50;;;1.80;;
18576;SDS011;9418;52.694;13.294;2022-07-30T08:59:13;5.37;;;3.00;;
18576;SDS011;9418;52.694;13.294;2022-07-30T09:01:41;4.10;;;1.67;;
18576;SDS011;9418;52.694;13.294;2022-07-30T09:04:08;2.10;;;1.90;;
18576;SDS011;9418;52.694;13.294;2022-07-30T09:06:35;5.33;;;1.77;;
18576;SDS011;9418;52.694;13.294;2022-07-30T09:09:02;2.20;;;2.00;;
18576;SDS011;9418;52.694;13.294;2022-07-30T09:11:29;5.70;;;1.60;;
18576;SDS011;9418;52.694;13.294;2022-07-30T09:14:00;2.40;;;1.53;;
18576;SDS011;9418;52.694;13.294;2022-07-30T09:16:33;13.27;;;1.60;;
18576;SDS011;9418;52.694;13.294;2022-07-30T09:19:00;2.67;;;1.60;;
18576;SDS011;9418;52.694;13.294;2022-07-30T09:21:38;3.77;;;1.60;;
18576;SDS011;9418;52.694;13.294;2022-07-30T09:24:06;6.53;;;2.00;;
18576;SDS011;9418;52.694;13.294;2022-07-30T09:29:19;3.10;;;2.07;;
18576;SDS011;9418;52.694;13.294;2022-07-30T09:31:56;1.70;;;1.60;;
18576;SDS011;9418;52.694;13.294;2022-07-30T09:34:26;5.83;;;1.70;;
18576;SDS011;9418;52.694;13.294;2022-07-30T09:36:55;2.30;;;1.73;;
18576;SDS011;9418;52.694;13.294;2022-07-30T09:39:32;5.60;;;1.63;;
18576;SDS011;9418;52.694;13.294;2022-07-30T09:42:00;2.80;;;1.90;;
18576;SDS011;9418;52.694;13.294;2022-07-30T09:44:27;4.27;;;2.40;;
18576;SDS011;9418;52.694;13.294;2022-07-30T09:46:55;6.53;;;1.87;;
18576;SDS011;9418;52.694;13.294;2022-07-30T09:49:23;1.40;;;1.30;;
18576;SDS011;9418;52.694;13.294;2022-07-30T09:51:52;3.70;;;1.77;;
18576;SDS011;9418;52.694;13.294;2022-07-30T09:54:19;6.00;;;1.77;;
18576;SDS011;9418;52.694;13.294;2022-07-30T09:56:46;1.50;;;1.37;;
18576;SDS011;9418;52.694;13.294;2022-07-30T09:59:28;2.50;;;1.37;;
18576;SDS011;9418;52.694;13.294;2022-07-30T10:01:56;9.90;;;1.90;;
18576;SDS011;9418;52.694;13.294;2022-07-30T10:04:23;7.93;;;1.93;;
18576;SDS011;9418;52.694;13.294;2022-07-30T10:06:52;8.40;;;2.00;;
18576;SDS011;9418;52.694;13.294;2022-07-30T10:09:23;7.37;;;1.80;;
18576;SDS011;9418;52.694;13.294;2022-07-30T10:11:51;3.03;;;2.20;;
18576;SDS011;9418;52.694;13.294;2022-07-30T10:14:19;1.47;;;1.20;;
18576;SDS011;9418;52.694;13.294;2022-07-30T10:16:48;2.87;;;1.50;;
18576;SDS011;9418;52.694;13.294;2022-07-30T10:19:15;5.37;;;1.90;;
18576;SDS011;9418;52.694;13.294;2022-07-30T10:21:43;2.87;;;1.13;;
18576;SDS011;9418;52.694;13.294;2022-07-30T10:24:11;1.97;;;1.30;;
18576;SDS011;9418;52.694;13.294;2022-07-30T10:26:41;1.83;;;1.27;;
18576;SDS011;9418;52.694;13.294;2022-07-30T10:29:08;1.50;;;1.40;;
18576;SDS011;9418;52.694;13.294;2022-07-30T10:31:35;2.90;;;1.30;;
18576;SDS011;9418;52.694;13.294;2022-07-30T10:34:01;5.23;;;1.77;;
18576;SDS011;9418;52.694;13.294;2022-07-30T10:36:28;2.10;;;1.50;;
18576;SDS011;9418;52.694;13.294;2022-07-30T10:38:55;2.90;;;1.30;;
18576;SDS011;9418;52.694;13.294;2022-07-30T10:41:30;1.47;;;1.37;;
18576;SDS011;9418;52.694;13.294;2022-07-30T10:46:59;3.90;;;1.30;;
18576;SDS011;9418;52.694;13.294;2022-07-30T10:49:27;19.77;;;1.80;;
18576;SDS011;9418;52.694;13.294;2022-07-30T10:51:54;2.10;;;1.23;;
18576;SDS011;9418;52.694;13.294;2022-07-30T10:54:34;2.87;;;1.10;;
18576;SDS011;9418;52.694;13.294;2022-07-30T10:57:03;1.83;;;1.23;;
18576;SDS011;9418;52.694;13.294;2022-07-30T11:02:31;1.63;;;1.17;;
18576;SDS011;9418;52.694;13.294;2022-07-30T11:07:47;7.03;;;1.43;;
18576;SDS011;9418;52.694;13.294;2022-07-30T11:13:01;5.50;;;1.27;;
18576;SDS011;9418;52.694;13.294;2022-07-30T11:18:17;1.97;;;1.50;;
18576;SDS011;9418;52.694;13.294;2022-07-30T11:21:13;1.80;;;1.33;;
18576;SDS011;9418;52.694;13.294;2022-07-30T11:23:39;3.43;;;1.37;;
18576;SDS011;9418;52.694;13.294;2022-07-30T11:26:07;5.70;;;1.33;;
18576;SDS011;9418;52.694;13.294;2022-07-30T11:28:36;6.63;;;1.60;;
18576;SDS011;9418;52.694;13.294;2022-07-30T11:33:53;1.57;;;1.47;;
18576;SDS011;9418;52.694;13.294;2022-07-30T11:37:04;1.10;;;1.00;;
18576;SDS011;9418;52.694;13.294;2022-07-30T11:42:37;4.33;;;1.07;;
18576;SDS011;9418;52.694;13.294;2022-07-30T11:47:57;4.63;;;1.10;;
18576;SDS011;9418;52.694;13.294;2022-07-30T11:50:30;1.90;;;1.20;;
18576;SDS011;9418;52.694;13.294;2022-07-30T11:52:58;1.93;;;1.43;;
18576;SDS011;9418;52.694;13.294;2022-07-30T11:55:26;2.70;;;1.50;;
18576;SDS011;9418;52.694;13.294;2022-07-30T11:57:55;1.00;;;1.00;;
18576;SDS011;9418;52.694;13.294;2022-07-30T12:00:23;5.27;;;1.40;;
18576;SDS011;9418;52.694;13.294;2022-07-30T12:02:50;2.20;;;1.47;;
18576;SDS011;9418;52.694;13.294;2022-07-30T12:05:22;3.53;;;1.20;;
18576;SDS011;9418;52.694;13.294;2022-07-30T12:07:51;3.53;;;1.27;;
18576;SDS011;9418;52.694;13.294;2022-07-30T12:10:22;1.67;;;1.40;;
18576;SDS011;9418;52.694;13.294;2022-07-30T12:12:49;4.10;;;1.30;;
18576;SDS011;9418;52.694;13.294;2022-07-30T12:15:28;5.60;;;1.70;;
18576;SDS011;9418;52.694;13.294;2022-07-30T12:17:56;2.30;;;1.60;;
18576;SDS011;9418;52.694;13.294;2022-07-30T12:20:25;3.23;;;1.73;;
18576;SDS011;9418;52.694;13.294;2022-07-30T12:22:53;3.10;;;1.37;;
18576;SDS011;9418;52.694;13.294;2022-07-30T12:25:20;1.83;;;1.60;;
18576;SDS011;9418;52.694;13.294;2022-07-30T12:27:47;5.63;;;1.47;;
18576;SDS011;9418;52.694;13.294;2022-07-30T12:30:15;3.60;;;1.33;;
18576;SDS011;9418;52.694;13.294;2022-07-30T12:32:43;1.17;;;1.10;;
18576;SDS011;9418;52.694;13.294;2022-07-30T12:35:11;12.03;;;2.30;;
18576;SDS011;9418;52.694;13.294;2022-07-30T12:37:37;2.13;;;1.33;;
18576;SDS011;9418;52.694;13.294;2022-07-30T12:40:07;1.43;;;1.33;;
18576;SDS011;9418;52.694;13.294;2022-07-30T12:42:35;1.70;;;1.60;;
18576;SDS011;9418;52.694;13.294;2022-07-30T12:45:03;3.63;;;1.67;;
18576;SDS011;9418;52.694;13.294;2022-07-30T12:47:31;0.97;;;0.97;;
18576;SDS011;9418;52.694;13.294;2022-07-30T12:49:59;2.60;;;1.33;;
18576;SDS011;9418;52.694;13.294;2022-07-30T12:52:28;4.50;;;1.00;;
18576;SDS011;9418;52.694;13.294;2022-07-30T12:54:56;1.43;;;1.33;;
18576;SDS011;9418;52.694;13.294;2022-07-30T12:57:28;1.80;;;1.30;;
18576;SDS011;9418;52.694;13.294;2022-07-30T13:00:19;3.57;;;1.47;;
18576;SDS011;9418;52.694;13.294;2022-07-30T13:02:46;1.43;;;1.30;;
18576;SDS011;9418;52.694;13.294;2022-07-30T13:05:13;1.10;;;1.10;;
18576;SDS011;9418;52.694;13.294;2022-07-30T13:07:56;1.10;;;1.00;;
18576;SDS011;9418;52.694;13.294;2022-07-30T13:10:24;3.17;;;1.20;;
18576;SDS011;9418;52.694;13.294;2022-07-30T13:12:53;0.97;;;0.97;;
18576;SDS011;9418;52.694;13.294;2022-07-30T13:15:20;1.30;;;1.10;;
18576;SDS011;9418;52.694;13.294;2022-07-30T13:17:47;0.97;;;0.97;;
18576;SDS011;9418;52.694;13.294;2022-07-30T13:20:14;2.30;;;1.27;;
18576;SDS011;9418;52.694;13.294;2022-07-30T13:22:42;2.13;;;1.20;;
18576;SDS011;9418;52.694;13.294;2022-07-30T13:25:09;1.33;;;1.00;;
18576;SDS011;9418;52.694;13.294;2022-07-30T13:27:36;1.10;;;1.10;;
18576;SDS011;9418;52.694;13.294;2022-07-30T13:30:05;3.67;;;1.37;;
18576;SDS011;9418;52.694;13.294;2022-07-30T13:32:32;1.20;;;1.20;;
18576;SDS011;9418;52.694;13.294;2022-07-30T13:34:59;1.17;;;1.07;;
18576;SDS011;9418;52.694;13.294;2022-07-30T13:37:26;1.90;;;1.63;;
18576;SDS011;9418;52.694;13.294;2022-07-30T13:39:53;3.63;;;1.27;;
18576;SDS011;9418;52.694;13.294;2022-07-30T13:42:20;2.83;;;1.20;;
18576;SDS011;9418;52.694;13.294;2022-07-30T13:44:46;1.07;;;0.97;;
18576;SDS011;9418;52.694;13.294;2022-07-30T13:47:14;1.70;;;1.10;;
18576;SDS011;9418;52.694;13.294;2022-07-30T13:49:41;0.83;;;0.83;;
18576;SDS011;9418;52.694;13.294;2022-07-30T13:52:10;4.03;;;1.37;;
18576;SDS011;9418;52.694;13.294;2022-07-30T13:54:36;1.60;;;1.40;;
18576;SDS011;9418;52.694;13.294;2022-07-30T13:57:03;1.80;;;1.40;;
18576;SDS011;9418;52.694;13.294;2022-07-30T13:59:30;1.03;;;1.03;;
18576;SDS011;9418;52.694;13.294;2022-07-30T14:01:57;1.27;;;0.83;;
18576;SDS011;9418;52.694;13.294;2022-07-30T14:04:26;1.23;;;0.80;;
18576;SDS011;9418;52.694;13.294;2022-07-30T14:06:53;3.63;;;1.67;;
18576;SDS011;9418;52.694;13.294;2022-07-30T14:09:20;1.97;;;1.37;;
18576;SDS011;9418;52.694;13.294;2022-07-30T14:11:46;1.40;;;1.30;;
18576;SDS011;9418;52.694;13.294;2022-07-30T14:14:13;3.73;;;1.40;;
18576;SDS011;9418;52.694;13.294;2022-07-30T14:16:39;1.67;;;1.03;;
18576;SDS011;9418;52.694;13.294;2022-07-30T14:19:06;8.73;;;0.90;;
18576;SDS011;9418;52.694;13.294;2022-07-30T14:21:34;2.60;;;1.20;;
18576;SDS011;9418;52.694;13.294;2022-07-30T14:24:01;5.03;;;1.30;;
18576;SDS011;9418;52.694;13.294;2022-07-30T14:26:29;1.50;;;0.97;;
18576;SDS011;9418;52.694;13.294;2022-07-30T14:28:55;1.50;;;1.00;;
18576;SDS011;9418;52.694;13.294;2022-07-30T14:31:22;3.50;;;1.70;;
18576;SDS011;9418;52.694;13.294;2022-07-30T14:33:48;2.40;;;1.27;;
18576;SDS011;9418;52.694;13.294;2022-07-30T14:36:15;1.13;;;1.03;;
18576;SDS011;9418;52.694;13.294;2022-07-30T14:38:43;1.73;;;1.30;;
18576;SDS011;9418;52.694;13.294;2022-07-30T14:41:09;2.17;;;1.13;;
18576;SDS011;9418;52.694;13.294;2022-07-30T14:43:36;1.13;;;1.03;;
18576;SDS011;9418;52.694;13.294;2022-07-30T14:46:03;1.17;;;1.00;;
18576;SDS011;9418;52.694;13.294;2022-07-30T14:48:29;1.53;;;1.20;;
18576;SDS011;9418;52.694;13.294;2022-07-30T14:50:56;1.67;;;1.40;;
18576;SDS011;9418;52.694;13.294;2022-07-30T14:53:25;11.17;;;1.33;;
18576;SDS011;9418;52.694;13.294;2022-07-30T14:55:53;2.90;;;1.30;;
18576;SDS011;9418;52.694;13.294;2022-07-30T14:58:20;2.40;;;1.67;;
18576;SDS011;9418;52.694;13.294;2022-07-30T15:00:46;1.17;;;1.07;;
18576;SDS011;9418;52.694;13.294;2022-07-30T15:03:13;6.10;;;1.10;;
18576;SDS011;9418;52.694;13.294;2022-07-30T15:05:39;2.20;;;1.20;;
18576;SDS011;9418;52.694;13.294;2022-07-30T15:08:06;4.83;;;1.43;;
18576;SDS011;9418;52.694;13.294;2022-07-30T15:10:33;6.77;;;1.20;;
18576;SDS011;9418;52.694;13.294;2022-07-30T15:13:01;1.90;;;1.07;;
18576;SDS011;9418;52.694;13.294;2022-07-30T15:15:27;11.40;;;1.47;;
18576;SDS011;9418;52.694;13.294;2022-07-30T15:17:54;0.80;;;0.80;;
18576;SDS011;9418;52.694;13.294;2022-07-30T15:20:20;4.17;;;1.10;;